sensor_id;sensor_type;location;lat;lon;timestamp;P1;durP1;ratioP1;P2;durP2;ratioP2
43650;SDS011;29247;50.944;5.382;2023-09-08T00:00:46;7.28;;;5.15;;
43650;SDS011;29247;50.944;5.382;2023-09-08T00:03:15;7.75;;;5.25;;
43650;SDS011;29247;50.944;5.382;2023-09-08T00:05:43;7.22;;;5.93;;
43650;SDS011;29247;50.944;5.382;2023-09-08T00:08:08;5.60;;;4.90;;
43650;SDS011;29247;50.944;5.382;2023-09-08T00:10:34;7.63;;;5.20;;
43650;SDS011;29247;50.944;5.382;2023-09-08T00:13:00;7.30;;;5.65;;
43650;SDS011;29247;50.944;5.382;2023-09-08T00:15:27;6.95;;;4.97;;
43650;SDS011;29247;50.944;5.382;2023-09-08T00:17:53;6.68;;;5.30;;
43650;SDS011;29247;50.944;5.382;2023-09-08T00:20:22;5.90;;;5.00;;
43650;SDS011;29247;50.944;5.382;2023-09-08T00:22:50;6.07;;;4.80;;
43650;SDS011;29247;50.944;5.382;2023-09-08T00:27:43;5.05;;;4.30;;
43650;SDS011;29247;50.944;5.382;2023-09-08T00:30:09;5.68;;;4.90;;
43650;SDS011;29247;50.944;5.382;2023-09-08T00:32:35;8.23;;;5.43;;
43650;SDS011;29247;50.944;5.382;2023-09-08T00:35:05;6.68;;;4.93;;
43650;SDS011;29247;50.944;5.382;2023-09-08T00:37:33;9.57;;;5.40;;
43650;SDS011;29247;50.944;5.382;2023-09-08T00:40:01;8.38;;;5.40;;
43650;SDS011;29247;50.944;5.382;2023-09-08T00:42:29;7.18;;;5.22;;
43650;SDS011;29247;50.944;5.382;2023-09-08T00:44:57;6.93;;;4.90;;
43650;SDS011;29247;50.944;5.382;2023-09-08T00:47:25;7.95;;;6.25;;
43650;SDS011;29247;50.944;5.382;2023-09-08T00:49:53;5.53;;;4.75;;
43650;SDS011;29247;50.944;5.382;2023-09-08T00:52:18;6.22;;;4.60;;
43650;SDS011;29247;50.944;5.382;2023-09-08T00:54:44;6.63;;;5.47;;
43650;SDS011;29247;50.944;5.382;2023-09-08T00:57:12;6.50;;;5.07;;
43650;SDS011;29247;50.944;5.382;2023-09-08T00:59:38;6.32;;;5.22;;
43650;SDS011;29247;50.944;5.382;2023-09-08T01:02:08;7.77;;;5.20;;
43650;SDS011;29247;50.944;5.382;2023-09-08T01:04:34;10.35;;;5.18;;
43650;SDS011;29247;50.944;5.382;2023-09-08T01:07:01;5.53;;;4.80;;
43650;SDS011;29247;50.944;5.382;2023-09-08T01:09:30;9.32;;;4.78;;
43650;SDS011;29247;50.944;5.382;2023-09-08T01:11:56;6.45;;;4.82;;
43650;SDS011;29247;50.944;5.382;2023-09-08T01:16:52;5.90;;;4.40;;
43650;SDS011;29247;50.944;5.382;2023-09-08T01:21:59;6.03;;;4.50;;
43650;SDS011;29247;50.944;5.382;2023-09-08T01:24:37;9.45;;;4.75;;
43650;SDS011;29247;50.944;5.382;2023-09-08T01:27:23;5.50;;;4.47;;
43650;SDS011;29247;50.944;5.382;2023-09-08T01:29:50;6.30;;;5.28;;
43650;SDS011;29247;50.944;5.382;2023-09-08T01:32:20;5.85;;;5.25;;
43650;SDS011;29247;50.944;5.382;2023-09-08T01:34:49;5.95;;;4.97;;
43650;SDS011;29247;50.944;5.382;2023-09-08T01:37:15;7.32;;;5.25;;
43650;SDS011;29247;50.944;5.382;2023-09-08T01:39:45;5.22;;;4.25;;
43650;SDS011;29247;50.944;5.382;2023-09-08T01:42:11;9.00;;;5.00;;
43650;SDS011;29247;50.944;5.382;2023-09-08T01:44:36;5.60;;;5.03;;
43650;SDS011;29247;50.944;5.382;2023-09-08T01:47:02;8.05;;;5.13;;
43650;SDS011;29247;50.944;5.382;2023-09-08T01:49:28;6.43;;;4.60;;
43650;SDS011;29247;50.944;5.382;2023-09-08T01:51:53;5.68;;;4.57;;
43650;SDS011;29247;50.944;5.382;2023-09-08T01:54:21;5.53;;;4.30;;
43650;SDS011;29247;50.944;5.382;2023-09-08T01:56:46;5.97;;;4.65;;
43650;SDS011;29247;50.944;5.382;2023-09-08T01:59:15;6.47;;;4.43;;
43650;SDS011;29247;50.944;5.382;2023-09-08T02:01:40;5.97;;;5.03;;
43650;SDS011;29247;50.944;5.382;2023-09-08T02:04:08;5.85;;;4.90;;
43650;SDS011;29247;50.944;5.382;2023-09-08T02:06:34;9.13;;;5.53;;
43650;SDS011;29247;50.944;5.382;2023-09-08T02:08:59;6.82;;;5.40;;
43650;SDS011;29247;50.944;5.382;2023-09-08T02:11:31;7.85;;;5.28;;
43650;SDS011;29247;50.944;5.382;2023-09-08T02:13:56;8.07;;;5.78;;
43650;SDS011;29247;50.944;5.382;2023-09-08T02:16:22;6.68;;;5.00;;
43650;SDS011;29247;50.944;5.382;2023-09-08T02:18:50;7.75;;;5.45;;
43650;SDS011;29247;50.944;5.382;2023-09-08T02:21:16;8.50;;;5.47;;
43650;SDS011;29247;50.944;5.382;2023-09-08T02:23:41;6.45;;;5.50;;
43650;SDS011;29247;50.944;5.382;2023-09-08T02:26:07;7.13;;;5.38;;
43650;SDS011;29247;50.944;5.382;2023-09-08T02:28:32;7.75;;;6.22;;
43650;SDS011;29247;50.944;5.382;2023-09-08T02:31:00;7.00;;;5.63;;
43650;SDS011;29247;50.944;5.382;2023-09-08T02:33:26;6.60;;;5.50;;
43650;SDS011;29247;50.944;5.382;2023-09-08T02:35:54;6.03;;;5.35;;
43650;SDS011;29247;50.944;5.382;2023-09-08T02:38:20;9.77;;;5.60;;
43650;SDS011;29247;50.944;5.382;2023-09-08T02:40:48;6.70;;;5.28;;
43650;SDS011;29247;50.944;5.382;2023-09-08T02:43:16;8.05;;;6.13;;
43650;SDS011;29247;50.944;5.382;2023-09-08T02:45:41;6.97;;;6.28;;
43650;SDS011;29247;50.944;5.382;2023-09-08T02:48:07;9.90;;;6.10;;
43650;SDS011;29247;50.944;5.382;2023-09-08T02:50:33;6.40;;;5.28;;
43650;SDS011;29247;50.944;5.382;2023-09-08T02:53:01;8.23;;;5.68;;
43650;SDS011;29247;50.944;5.382;2023-09-08T02:55:26;7.13;;;6.18;;
43650;SDS011;29247;50.944;5.382;2023-09-08T02:57:52;9.20;;;6.18;;
43650;SDS011;29247;50.944;5.382;2023-09-08T03:00:18;8.88;;;5.43;;
43650;SDS011;29247;50.944;5.382;2023-09-08T03:02:44;10.63;;;6.25;;
43650;SDS011;29247;50.944;5.382;2023-09-08T03:05:09;9.27;;;6.18;;
43650;SDS011;29247;50.944;5.382;2023-09-08T03:07:35;9.68;;;6.50;;
43650;SDS011;29247;50.944;5.382;2023-09-08T03:10:02;7.50;;;6.03;;
43650;SDS011;29247;50.944;5.382;2023-09-08T03:12:29;6.45;;;5.45;;
43650;SDS011;29247;50.944;5.382;2023-09-08T03:14:55;7.78;;;6.50;;
43650;SDS011;29247;50.944;5.382;2023-09-08T03:17:21;7.95;;;6.20;;
43650;SDS011;29247;50.944;5.382;2023-09-08T03:19:46;8.55;;;6.30;;
43650;SDS011;29247;50.944;5.382;2023-09-08T03:22:12;8.63;;;6.65;;
43650;SDS011;29247;50.944;5.382;2023-09-08T03:24:37;9.10;;;6.43;;
43650;SDS011;29247;50.944;5.382;2023-09-08T03:27:05;9.32;;;6.45;;
43650;SDS011;29247;50.944;5.382;2023-09-08T03:29:31;11.10;;;6.40;;
43650;SDS011;29247;50.944;5.382;2023-09-08T03:31:56;10.77;;;6.28;;
43650;SDS011;29247;50.944;5.382;2023-09-08T03:34:24;8.45;;;6.55;;
43650;SDS011;29247;50.944;5.382;2023-09-08T03:36:51;9.80;;;6.80;;
43650;SDS011;29247;50.944;5.382;2023-09-08T03:39:21;8.55;;;6.47;;
43650;SDS011;29247;50.944;5.382;2023-09-08T03:41:46;8.55;;;6.43;;
43650;SDS011;29247;50.944;5.382;2023-09-08T03:44:12;7.90;;;6.95;;
43650;SDS011;29247;50.944;5.382;2023-09-08T03:46:38;8.30;;;6.20;;
43650;SDS011;29247;50.944;5.382;2023-09-08T03:49:03;7.70;;;5.63;;
43650;SDS011;29247;50.944;5.382;2023-09-08T03:51:29;8.70;;;6.40;;
43650;SDS011;29247;50.944;5.382;2023-09-08T03:56:25;7.07;;;6.03;;
43650;SDS011;29247;50.944;5.382;2023-09-08T03:58:52;8.25;;;6.40;;
43650;SDS011;29247;50.944;5.382;2023-09-08T04:01:18;9.90;;;6.43;;
43650;SDS011;29247;50.944;5.382;2023-09-08T04:03:46;9.77;;;6.70;;
43650;SDS011;29247;50.944;5.382;2023-09-08T04:06:12;9.40;;;6.13;;
43650;SDS011;29247;50.944;5.382;2023-09-08T04:08:39;8.45;;;5.88;;
43650;SDS011;29247;50.944;5.382;2023-09-08T04:11:07;8.88;;;6.22;;
43650;SDS011;29247;50.944;5.382;2023-09-08T04:13:33;8.88;;;6.53;;
43650;SDS011;29247;50.944;5.382;2023-09-08T04:15:58;8.75;;;6.65;;
43650;SDS011;29247;50.944;5.382;2023-09-08T04:18:24;9.30;;;7.07;;
43650;SDS011;29247;50.944;5.382;2023-09-08T04:20:50;9.80;;;5.70;;
43650;SDS011;29247;50.944;5.382;2023-09-08T04:23:17;7.75;;;5.60;;
43650;SDS011;29247;50.944;5.382;2023-09-08T04:25:45;7.40;;;6.05;;
43650;SDS011;29247;50.944;5.382;2023-09-08T04:28:11;9.02;;;6.07;;
43650;SDS011;29247;50.944;5.382;2023-09-08T04:30:39;8.85;;;6.72;;
43650;SDS011;29247;50.944;5.382;2023-09-08T04:33:05;6.68;;;5.63;;
43650;SDS011;29247;50.944;5.382;2023-09-08T04:35:30;6.88;;;5.78;;
43650;SDS011;29247;50.944;5.382;2023-09-08T04:38:00;9.63;;;6.25;;
43650;SDS011;29247;50.944;5.382;2023-09-08T04:40:27;8.38;;;6.03;;
43650;SDS011;29247;50.944;5.382;2023-09-08T04:42:53;9.20;;;5.90;;
43650;SDS011;29247;50.944;5.382;2023-09-08T04:45:19;7.30;;;5.60;;
43650;SDS011;29247;50.944;5.382;2023-09-08T04:47:49;6.68;;;5.35;;
43650;SDS011;29247;50.944;5.382;2023-09-08T04:52:45;9.20;;;5.80;;
43650;SDS011;29247;50.944;5.382;2023-09-08T04:55:10;7.88;;;5.38;;
43650;SDS011;29247;50.944;5.382;2023-09-08T04:57:36;7.10;;;6.03;;
43650;SDS011;29247;50.944;5.382;2023-09-08T05:00:02;7.38;;;5.93;;
43650;SDS011;29247;50.944;5.382;2023-09-08T05:02:28;7.20;;;5.72;;
43650;SDS011;29247;50.944;5.382;2023-09-08T05:04:56;8.35;;;6.97;;
43650;SDS011;29247;50.944;5.382;2023-09-08T05:07:22;8.90;;;6.47;;
43650;SDS011;29247;50.944;5.382;2023-09-08T05:09:47;7.75;;;6.53;;
43650;SDS011;29247;50.944;5.382;2023-09-08T05:12:13;7.57;;;6.07;;
43650;SDS011;29247;50.944;5.382;2023-09-08T05:14:39;7.95;;;6.47;;
43650;SDS011;29247;50.944;5.382;2023-09-08T05:17:07;8.07;;;6.53;;
43650;SDS011;29247;50.944;5.382;2023-09-08T05:19:35;7.70;;;6.43;;
43650;SDS011;29247;50.944;5.382;2023-09-08T05:22:00;11.00;;;6.28;;
43650;SDS011;29247;50.944;5.382;2023-09-08T05:24:28;8.60;;;6.53;;
43650;SDS011;29247;50.944;5.382;2023-09-08T05:26:54;8.98;;;6.88;;
43650;SDS011;29247;50.944;5.382;2023-09-08T05:29:22;10.43;;;6.55;;
43650;SDS011;29247;50.944;5.382;2023-09-08T05:31:50;9.38;;;6.85;;
43650;SDS011;29247;50.944;5.382;2023-09-08T05:34:20;6.70;;;5.95;;
43650;SDS011;29247;50.944;5.382;2023-09-08T05:36:46;9.60;;;6.78;;
43650;SDS011;29247;50.944;5.382;2023-09-08T05:39:13;9.82;;;6.88;;
43650;SDS011;29247;50.944;5.382;2023-09-08T05:41:39;9.70;;;7.10;;
43650;SDS011;29247;50.944;5.382;2023-09-08T05:44:05;7.40;;;6.28;;
43650;SDS011;29247;50.944;5.382;2023-09-08T05:46:31;10.93;;;6.85;;
43650;SDS011;29247;50.944;5.382;2023-09-08T05:48:56;13.27;;;7.30;;
43650;SDS011;29247;50.944;5.382;2023-09-08T05:51:22;11.27;;;7.35;;
43650;SDS011;29247;50.944;5.382;2023-09-08T05:53:48;7.53;;;6.30;;
43650;SDS011;29247;50.944;5.382;2023-09-08T05:56:13;8.70;;;6.78;;
43650;SDS011;29247;50.944;5.382;2023-09-08T05:58:41;9.55;;;7.10;;
43650;SDS011;29247;50.944;5.382;2023-09-08T06:01:12;11.10;;;7.55;;
43650;SDS011;29247;50.944;5.382;2023-09-08T06:03:37;9.98;;;7.13;;
43650;SDS011;29247;50.944;5.382;2023-09-08T06:06:03;10.13;;;7.40;;
43650;SDS011;29247;50.944;5.382;2023-09-08T06:08:31;11.88;;;8.00;;
43650;SDS011;29247;50.944;5.382;2023-09-08T06:10:57;12.95;;;7.57;;
43650;SDS011;29247;50.944;5.382;2023-09-08T06:13:22;10.75;;;7.07;;
43650;SDS011;29247;50.944;5.382;2023-09-08T06:15:48;10.90;;;7.57;;
43650;SDS011;29247;50.944;5.382;2023-09-08T06:18:16;13.18;;;8.25;;
43650;SDS011;29247;50.944;5.382;2023-09-08T06:20:45;12.75;;;8.70;;
43650;SDS011;29247;50.944;5.382;2023-09-08T06:23:11;10.35;;;6.88;;
43650;SDS011;29247;50.944;5.382;2023-09-08T06:25:40;14.32;;;8.05;;
43650;SDS011;29247;50.944;5.382;2023-09-08T06:28:06;10.80;;;7.85;;
43650;SDS011;29247;50.944;5.382;2023-09-08T06:30:31;13.13;;;7.93;;
43650;SDS011;29247;50.944;5.382;2023-09-08T06:32:57;10.90;;;8.10;;
43650;SDS011;29247;50.944;5.382;2023-09-08T06:35:23;15.05;;;8.43;;
43650;SDS011;29247;50.944;5.382;2023-09-08T06:37:51;12.07;;;8.48;;
43650;SDS011;29247;50.944;5.382;2023-09-08T06:40:18;13.20;;;8.32;;
43650;SDS011;29247;50.944;5.382;2023-09-08T06:42:46;12.48;;;7.65;;
43650;SDS011;29247;50.944;5.382;2023-09-08T06:45:12;13.73;;;7.80;;
43650;SDS011;29247;50.944;5.382;2023-09-08T06:47:38;11.18;;;7.47;;
43650;SDS011;29247;50.944;5.382;2023-09-08T06:50:06;10.88;;;7.80;;
43650;SDS011;29247;50.944;5.382;2023-09-08T06:52:32;10.25;;;8.15;;
43650;SDS011;29247;50.944;5.382;2023-09-08T06:54:57;15.73;;;9.30;;
43650;SDS011;29247;50.944;5.382;2023-09-08T06:57:23;11.73;;;9.23;;
43650;SDS011;29247;50.944;5.382;2023-09-08T06:59:48;13.32;;;8.48;;
43650;SDS011;29247;50.944;5.382;2023-09-08T07:02:16;13.30;;;7.88;;
43650;SDS011;29247;50.944;5.382;2023-09-08T07:04:44;17.08;;;9.35;;
43650;SDS011;29247;50.944;5.382;2023-09-08T07:07:10;13.30;;;8.48;;
43650;SDS011;29247;50.944;5.382;2023-09-08T07:09:36;16.88;;;9.18;;
43650;SDS011;29247;50.944;5.382;2023-09-08T07:12:04;12.35;;;9.10;;
43650;SDS011;29247;50.944;5.382;2023-09-08T07:14:31;13.85;;;9.90;;
43650;SDS011;29247;50.944;5.382;2023-09-08T07:16:57;13.30;;;9.40;;
43650;SDS011;29247;50.944;5.382;2023-09-08T07:19:23;13.75;;;8.45;;
43650;SDS011;29247;50.944;5.382;2023-09-08T07:21:51;10.63;;;6.80;;
43650;SDS011;29247;50.944;5.382;2023-09-08T07:24:16;10.38;;;7.40;;
43650;SDS011;29247;50.944;5.382;2023-09-08T07:26:42;12.40;;;9.10;;
43650;SDS011;29247;50.944;5.382;2023-09-08T07:29:08;14.20;;;8.85;;
43650;SDS011;29247;50.944;5.382;2023-09-08T07:31:33;14.82;;;7.13;;
43650;SDS011;29247;50.944;5.382;2023-09-08T07:33:59;9.45;;;7.25;;
43650;SDS011;29247;50.944;5.382;2023-09-08T07:36:27;12.45;;;7.97;;
43650;SDS011;29247;50.944;5.382;2023-09-08T07:38:52;10.15;;;7.10;;
43650;SDS011;29247;50.944;5.382;2023-09-08T07:41:18;12.55;;;7.60;;
43650;SDS011;29247;50.944;5.382;2023-09-08T07:43:44;8.88;;;6.25;;
43650;SDS011;29247;50.944;5.382;2023-09-08T07:46:10;9.70;;;6.95;;
43650;SDS011;29247;50.944;5.382;2023-09-08T07:48:39;11.95;;;7.30;;
43650;SDS011;29247;50.944;5.382;2023-09-08T07:51:04;8.27;;;6.28;;
43650;SDS011;29247;50.944;5.382;2023-09-08T07:53:30;11.45;;;6.78;;
43650;SDS011;29247;50.944;5.382;2023-09-08T07:55:56;9.43;;;6.55;;
43650;SDS011;29247;50.944;5.382;2023-09-08T07:58:24;8.27;;;6.70;;
43650;SDS011;29247;50.944;5.382;2023-09-08T08:00:49;9.32;;;6.32;;
43650;SDS011;29247;50.944;5.382;2023-09-08T08:03:15;7.25;;;6.47;;
43650;SDS011;29247;50.944;5.382;2023-09-08T08:05:40;7.63;;;5.90;;
43650;SDS011;29247;50.944;5.382;2023-09-08T08:08:06;10.80;;;6.32;;
43650;SDS011;29247;50.944;5.382;2023-09-08T08:10:34;7.63;;;6.00;;
43650;SDS011;29247;50.944;5.382;2023-09-08T08:13:00;8.95;;;5.35;;
43650;SDS011;29247;50.944;5.382;2023-09-08T08:15:38;6.70;;;5.70;;
43650;SDS011;29247;50.944;5.382;2023-09-08T08:18:12;9.30;;;5.93;;
43650;SDS011;29247;50.944;5.382;2023-09-08T08:20:40;6.18;;;5.45;;
43650;SDS011;29247;50.944;5.382;2023-09-08T08:23:06;8.10;;;5.28;;
43650;SDS011;29247;50.944;5.382;2023-09-08T08:25:37;9.20;;;5.82;;
43650;SDS011;29247;50.944;5.382;2023-09-08T08:28:02;7.35;;;5.90;;
43650;SDS011;29247;50.944;5.382;2023-09-08T08:30:30;7.03;;;5.10;;
43650;SDS011;29247;50.944;5.382;2023-09-08T08:32:57;9.63;;;5.63;;
43650;SDS011;29247;50.944;5.382;2023-09-08T08:35:23;9.23;;;5.55;;
43650;SDS011;29247;50.944;5.382;2023-09-08T08:37:53;6.30;;;5.70;;
43650;SDS011;29247;50.944;5.382;2023-09-08T08:40:21;9.25;;;5.30;;
43650;SDS011;29247;50.944;5.382;2023-09-08T08:42:51;8.02;;;6.05;;
43650;SDS011;29247;50.944;5.382;2023-09-08T08:45:21;9.30;;;5.88;;
43650;SDS011;29247;50.944;5.382;2023-09-08T08:47:49;11.38;;;6.07;;
43650;SDS011;29247;50.944;5.382;2023-09-08T08:50:17;6.10;;;4.97;;
43650;SDS011;29247;50.944;5.382;2023-09-08T08:52:44;7.72;;;5.18;;
43650;SDS011;29247;50.944;5.382;2023-09-08T08:55:10;7.38;;;5.85;;
43650;SDS011;29247;50.944;5.382;2023-09-08T08:57:36;9.18;;;5.70;;
43650;SDS011;29247;50.944;5.382;2023-09-08T09:00:05;6.75;;;6.05;;
43650;SDS011;29247;50.944;5.382;2023-09-08T09:02:36;10.02;;;5.47;;
43650;SDS011;29247;50.944;5.382;2023-09-08T09:05:12;6.13;;;5.32;;
43650;SDS011;29247;50.944;5.382;2023-09-08T09:07:38;6.68;;;5.50;;
43650;SDS011;29247;50.944;5.382;2023-09-08T09:10:05;9.32;;;5.25;;
43650;SDS011;29247;50.944;5.382;2023-09-08T09:12:40;9.07;;;5.05;;
43650;SDS011;29247;50.944;5.382;2023-09-08T09:15:08;8.15;;;5.90;;
43650;SDS011;29247;50.944;5.382;2023-09-08T09:17:36;6.05;;;5.38;;
43650;SDS011;29247;50.944;5.382;2023-09-08T09:20:15;6.18;;;5.03;;
43650;SDS011;29247;50.944;5.382;2023-09-08T09:22:47;10.25;;;5.55;;
43650;SDS011;29247;50.944;5.382;2023-09-08T09:25:20;6.68;;;5.95;;
43650;SDS011;29247;50.944;5.382;2023-09-08T09:28:00;6.55;;;5.20;;
43650;SDS011;29247;50.944;5.382;2023-09-08T09:30:27;7.82;;;6.05;;
43650;SDS011;29247;50.944;5.382;2023-09-08T09:33:10;9.50;;;5.55;;
43650;SDS011;29247;50.944;5.382;2023-09-08T09:35:42;10.43;;;5.95;;
43650;SDS011;29247;50.944;5.382;2023-09-08T09:38:08;8.68;;;6.00;;
43650;SDS011;29247;50.944;5.382;2023-09-08T09:40:36;9.88;;;5.57;;
43650;SDS011;29247;50.944;5.382;2023-09-08T09:43:03;7.57;;;5.65;;
43650;SDS011;29247;50.944;5.382;2023-09-08T09:45:30;7.18;;;5.45;;
43650;SDS011;29247;50.944;5.382;2023-09-08T09:47:57;7.13;;;5.22;;
43650;SDS011;29247;50.944;5.382;2023-09-08T09:50:32;7.07;;;5.78;;
43650;SDS011;29247;50.944;5.382;2023-09-08T09:53:01;9.73;;;5.30;;
43650;SDS011;29247;50.944;5.382;2023-09-08T09:55:32;8.40;;;5.72;;
43650;SDS011;29247;50.944;5.382;2023-09-08T09:58:01;5.93;;;4.93;;
43650;SDS011;29247;50.944;5.382;2023-09-08T10:00:29;8.63;;;6.07;;
43650;SDS011;29247;50.944;5.382;2023-09-08T10:02:57;7.38;;;5.68;;
43650;SDS011;29247;50.944;5.382;2023-09-08T10:05:23;8.13;;;5.70;;
43650;SDS011;29247;50.944;5.382;2023-09-08T10:07:50;5.90;;;5.30;;
43650;SDS011;29247;50.944;5.382;2023-09-08T10:10:16;7.95;;;5.72;;
43650;SDS011;29247;50.944;5.382;2023-09-08T10:12:46;8.55;;;5.38;;
43650;SDS011;29247;50.944;5.382;2023-09-08T10:15:19;9.68;;;5.38;;
43650;SDS011;29247;50.944;5.382;2023-09-08T10:17:50;9.60;;;7.00;;
43650;SDS011;29247;50.944;5.382;2023-09-08T10:20:27;7.15;;;5.88;;
43650;SDS011;29247;50.944;5.382;2023-09-08T10:23:01;7.28;;;5.32;;
43650;SDS011;29247;50.944;5.382;2023-09-08T10:25:29;7.05;;;5.28;;
43650;SDS011;29247;50.944;5.382;2023-09-08T10:28:00;7.43;;;6.18;;
43650;SDS011;29247;50.944;5.382;2023-09-08T10:30:29;5.82;;;5.15;;
43650;SDS011;29247;50.944;5.382;2023-09-08T10:32:56;8.63;;;6.50;;
43650;SDS011;29247;50.944;5.382;2023-09-08T10:35:22;7.50;;;6.47;;
43650;SDS011;29247;50.944;5.382;2023-09-08T10:37:48;8.13;;;6.43;;
43650;SDS011;29247;50.944;5.382;2023-09-08T10:42:46;6.35;;;5.43;;
43650;SDS011;29247;50.944;5.382;2023-09-08T10:45:16;11.18;;;5.40;;
43650;SDS011;29247;50.944;5.382;2023-09-08T10:50:18;7.65;;;5.35;;
43650;SDS011;29247;50.944;5.382;2023-09-08T10:52:45;5.53;;;5.03;;
43650;SDS011;29247;50.944;5.382;2023-09-08T10:55:35;7.65;;;5.10;;
43650;SDS011;29247;50.944;5.382;2023-09-08T10:58:03;7.80;;;5.05;;
43650;SDS011;29247;50.944;5.382;2023-09-08T11:00:29;5.28;;;4.82;;
43650;SDS011;29247;50.944;5.382;2023-09-08T11:03:09;6.47;;;4.40;;
43650;SDS011;29247;50.944;5.382;2023-09-08T11:05:36;7.80;;;5.22;;
43650;SDS011;29247;50.944;5.382;2023-09-08T11:08:04;7.15;;;5.47;;
43650;SDS011;29247;50.944;5.382;2023-09-08T11:10:30;7.03;;;5.13;;
43650;SDS011;29247;50.944;5.382;2023-09-08T11:12:57;6.15;;;4.40;;
43650;SDS011;29247;50.944;5.382;2023-09-08T11:15:27;5.97;;;4.90;;
43650;SDS011;29247;50.944;5.382;2023-09-08T11:17:53;6.70;;;4.80;;
43650;SDS011;29247;50.944;5.382;2023-09-08T11:20:27;8.10;;;5.72;;
43650;SDS011;29247;50.944;5.382;2023-09-08T11:22:56;11.07;;;4.78;;
43650;SDS011;29247;50.944;5.382;2023-09-08T11:25:22;7.07;;;5.68;;
43650;SDS011;29247;50.944;5.382;2023-09-08T11:27:47;8.20;;;5.85;;
43650;SDS011;29247;50.944;5.382;2023-09-08T11:30:15;7.07;;;4.97;;
43650;SDS011;29247;50.944;5.382;2023-09-08T11:32:41;7.53;;;4.78;;
43650;SDS011;29247;50.944;5.382;2023-09-08T11:35:12;8.55;;;4.90;;
43650;SDS011;29247;50.944;5.382;2023-09-08T11:37:43;7.13;;;5.07;;
43650;SDS011;29247;50.944;5.382;2023-09-08T11:40:10;6.17;;;4.67;;
43650;SDS011;29247;50.944;5.382;2023-09-08T11:42:43;7.22;;;4.80;;
43650;SDS011;29247;50.944;5.382;2023-09-08T11:45:15;5.25;;;4.75;;
43650;SDS011;29247;50.944;5.382;2023-09-08T11:47:48;7.93;;;4.78;;
43650;SDS011;29247;50.944;5.382;2023-09-08T11:50:15;5.80;;;4.95;;
43650;SDS011;29247;50.944;5.382;2023-09-08T11:52:47;6.47;;;4.75;;
43650;SDS011;29247;50.944;5.382;2023-09-08T11:55:14;5.18;;;4.25;;
43650;SDS011;29247;50.944;5.382;2023-09-08T11:57:40;9.38;;;4.88;;
43650;SDS011;29247;50.944;5.382;2023-09-08T12:00:08;9.45;;;5.25;;
43650;SDS011;29247;50.944;5.382;2023-09-08T12:02:37;6.03;;;5.03;;
43650;SDS011;29247;50.944;5.382;2023-09-08T12:05:05;6.45;;;4.38;;
43650;SDS011;29247;50.944;5.382;2023-09-08T12:07:38;6.65;;;5.38;;
43650;SDS011;29247;50.944;5.382;2023-09-08T12:10:08;5.60;;;5.10;;
43650;SDS011;29247;50.944;5.382;2023-09-08T12:12:46;6.70;;;4.78;;
43650;SDS011;29247;50.944;5.382;2023-09-08T12:18:03;6.63;;;4.60;;
43650;SDS011;29247;50.944;5.382;2023-09-08T12:20:33;5.85;;;4.68;;
43650;SDS011;29247;50.944;5.382;2023-09-08T12:23:00;5.15;;;4.65;;
43650;SDS011;29247;50.944;5.382;2023-09-08T12:25:32;7.50;;;5.25;;
43650;SDS011;29247;50.944;5.382;2023-09-08T12:27:59;6.25;;;5.43;;
43650;SDS011;29247;50.944;5.382;2023-09-08T12:30:25;5.47;;;4.95;;
43650;SDS011;29247;50.944;5.382;2023-09-08T12:32:57;5.40;;;4.82;;
43650;SDS011;29247;50.944;5.382;2023-09-08T12:35:24;7.35;;;4.40;;
43650;SDS011;29247;50.944;5.382;2023-09-08T12:40:27;6.28;;;4.40;;
43650;SDS011;29247;50.944;5.382;2023-09-08T12:42:54;7.90;;;5.03;;
43650;SDS011;29247;50.944;5.382;2023-09-08T12:45:26;8.25;;;4.70;;
43650;SDS011;29247;50.944;5.382;2023-09-08T12:47:52;5.45;;;4.50;;
43650;SDS011;29247;50.944;5.382;2023-09-08T12:50:23;7.00;;;4.38;;
43650;SDS011;29247;50.944;5.382;2023-09-08T12:52:49;7.63;;;4.38;;
43650;SDS011;29247;50.944;5.382;2023-09-08T12:55:18;5.22;;;4.35;;
43650;SDS011;29247;50.944;5.382;2023-09-08T12:57:44;5.90;;;4.63;;
43650;SDS011;29247;50.944;5.382;2023-09-08T13:00:12;5.60;;;4.72;;
43650;SDS011;29247;50.944;5.382;2023-09-08T13:02:39;5.45;;;4.95;;
43650;SDS011;29247;50.944;5.382;2023-09-08T13:05:09;5.45;;;4.93;;
43650;SDS011;29247;50.944;5.382;2023-09-08T13:07:36;4.70;;;4.20;;
43650;SDS011;29247;50.944;5.382;2023-09-08T13:10:05;4.85;;;4.45;;
43650;SDS011;29247;50.944;5.382;2023-09-08T13:12:31;5.18;;;4.43;;
43650;SDS011;29247;50.944;5.382;2023-09-08T13:14:59;4.85;;;4.18;;
43650;SDS011;29247;50.944;5.382;2023-09-08T13:17:25;5.32;;;3.90;;
43650;SDS011;29247;50.944;5.382;2023-09-08T13:19:50;6.60;;;3.80;;
43650;SDS011;29247;50.944;5.382;2023-09-08T13:22:19;6.78;;;4.22;;
43650;SDS011;29247;50.944;5.382;2023-09-08T13:24:45;4.20;;;3.80;;
43650;SDS011;29247;50.944;5.382;2023-09-08T13:27:13;5.18;;;3.65;;
43650;SDS011;29247;50.944;5.382;2023-09-08T13:29:42;9.43;;;4.30;;
43650;SDS011;29247;50.944;5.382;2023-09-08T13:32:07;5.03;;;3.92;;
43650;SDS011;29247;50.944;5.382;2023-09-08T13:34:38;5.97;;;4.05;;
43650;SDS011;29247;50.944;5.382;2023-09-08T13:37:04;6.10;;;3.95;;
43650;SDS011;29247;50.944;5.382;2023-09-08T13:39:29;4.88;;;3.95;;
43650;SDS011;29247;50.944;5.382;2023-09-08T13:41:55;5.38;;;4.10;;
43650;SDS011;29247;50.944;5.382;2023-09-08T13:44:24;7.93;;;3.83;;
43650;SDS011;29247;50.944;5.382;2023-09-08T13:46:54;5.45;;;3.10;;
43650;SDS011;29247;50.944;5.382;2023-09-08T13:49:21;5.45;;;3.60;;
43650;SDS011;29247;50.944;5.382;2023-09-08T13:51:47;4.72;;;3.70;;
43650;SDS011;29247;50.944;5.382;2023-09-08T13:54:16;5.43;;;3.30;;
43650;SDS011;29247;50.944;5.382;2023-09-08T13:56:44;6.63;;;4.07;;
43650;SDS011;29247;50.944;5.382;2023-09-08T13:59:09;5.43;;;4.03;;
43650;SDS011;29247;50.944;5.382;2023-09-08T14:01:38;6.18;;;3.58;;
43650;SDS011;29247;50.944;5.382;2023-09-08T14:04:05;8.07;;;4.20;;
43650;SDS011;29247;50.944;5.382;2023-09-08T14:06:31;4.57;;;3.55;;
43650;SDS011;29247;50.944;5.382;2023-09-08T14:08:57;3.78;;;3.40;;
43650;SDS011;29247;50.944;5.382;2023-09-08T14:11:25;6.80;;;3.88;;
43650;SDS011;29247;50.944;5.382;2023-09-08T14:13:52;7.75;;;4.03;;
43650;SDS011;29247;50.944;5.382;2023-09-08T14:16:17;6.28;;;3.53;;
43650;SDS011;29247;50.944;5.382;2023-09-08T14:18:46;6.65;;;3.70;;
43650;SDS011;29247;50.944;5.382;2023-09-08T14:21:14;3.78;;;3.38;;
43650;SDS011;29247;50.944;5.382;2023-09-08T14:23:42;4.82;;;3.30;;
43650;SDS011;29247;50.944;5.382;2023-09-08T14:26:08;5.53;;;3.15;;
43650;SDS011;29247;50.944;5.382;2023-09-08T14:28:33;4.20;;;3.90;;
43650;SDS011;29247;50.944;5.382;2023-09-08T14:30:59;4.10;;;3.70;;
43650;SDS011;29247;50.944;5.382;2023-09-08T14:33:25;7.03;;;4.20;;
43650;SDS011;29247;50.944;5.382;2023-09-08T14:35:51;4.63;;;3.53;;
43650;SDS011;29247;50.944;5.382;2023-09-08T14:38:21;4.45;;;3.75;;
43650;SDS011;29247;50.944;5.382;2023-09-08T14:40:56;8.43;;;4.18;;
43650;SDS011;29247;50.944;5.382;2023-09-08T14:43:23;6.70;;;3.85;;
43650;SDS011;29247;50.944;5.382;2023-09-08T14:45:52;4.95;;;4.00;;
43650;SDS011;29247;50.944;5.382;2023-09-08T14:48:18;6.30;;;3.88;;
43650;SDS011;29247;50.944;5.382;2023-09-08T14:50:44;4.60;;;4.20;;
43650;SDS011;29247;50.944;5.382;2023-09-08T14:53:12;6.53;;;4.30;;
43650;SDS011;29247;50.944;5.382;2023-09-08T14:55:37;4.85;;;3.17;;
43650;SDS011;29247;50.944;5.382;2023-09-08T14:58:04;4.80;;;3.72;;
43650;SDS011;29247;50.944;5.382;2023-09-08T15:00:29;7.20;;;3.45;;
43650;SDS011;29247;50.944;5.382;2023-09-08T15:02:57;8.27;;;3.53;;
43650;SDS011;29247;50.944;5.382;2023-09-08T15:05:26;5.60;;;3.30;;
43650;SDS011;29247;50.944;5.382;2023-09-08T15:07:52;4.80;;;3.17;;
43650;SDS011;29247;50.944;5.382;2023-09-08T15:10:17;4.18;;;3.58;;